Time;durP1;ratioP1;P1;durP2;ratioP2;P2;SDS_P1;SDS_P2;PMS_P1;PMS_P2;Temp;Humidity;BMP_temperature;BMP_pressure;BME280_temperature;BME280_humidity;BME280_pressure;Samples;Min_cycle;Max_cycle;Signal;HPM_P1;HPM_P2
2022/10/13 00:01:54;;;;;;;28.95;15.52;;;10.00;99.90;;;;;;5134392;27;20035;-65
2022/10/13 00:04:19;;;;;;;26.40;15.00;;;9.90;99.90;;;;;;5133134;27;20502;-65
2022/10/13 00:06:45;;;;;;;32.42;16.00;;;9.90;99.90;;;;;;5132898;27;20437;-65
2022/10/13 00:09:11;;;;;;;27.30;15.68;;;9.90;99.90;;;;;;5132865;27;20117;-65
2022/10/13 00:11:37;;;;;;;25.52;15.43;;;9.90;99.90;;;;;;5134385;27;20043;-65
2022/10/13 00:14:04;;;;;;;27.27;14.65;;;9.90;99.90;;;;;;5115481;27;20376;-65
2022/10/13 00:16:31;;;;;;;27.45;14.98;;;9.90;99.90;;;;;;5115533;27;20039;-65
2022/10/13 00:18:57;;;;;;;24.23;13.98;;;9.90;99.90;;;;;;5131529;27;20070;-65
2022/10/13 00:21:25;;;;;;;29.95;16.15;;;9.90;99.90;;;;;;5133885;27;20479;-65
2022/10/13 00:23:52;;;;;;;27.58;14.73;;;9.90;99.90;;;;;;5133992;27;20091;-65
2022/10/13 00:26:20;;;;;;;26.60;14.57;;;9.90;99.90;;;;;;5134115;27;20080;-65
2022/10/13 00:28:46;;;;;;;35.25;16.50;;;9.90;99.90;;;;;;5133966;27;20150;-65
2022/10/13 00:31:15;;;;;;;23.98;14.05;;;9.90;99.90;;;;;;5132600;27;20129;-65
2022/10/13 00:33:41;;;;;;;26.65;13.98;;;9.90;99.90;;;;;;5115235;27;20047;-65
2022/10/13 00:36:07;;;;;;;23.35;13.88;;;9.90;99.90;;;;;;5132427;27;20058;-65
2022/10/13 00:38:33;;;;;;;31.02;15.13;;;10.00;99.90;;;;;;5133561;27;20161;-65
2022/10/13 00:40:59;;;;;;;26.60;14.18;;;9.90;99.90;;;;;;5132433;27;20062;-65
2022/10/13 00:43:50;;;;;;;28.23;14.85;;;10.00;99.90;;;;;;5132103;27;20058;-65
2022/10/13 00:46:16;;;;;;;25.27;13.63;;;10.00;99.90;;;;;;5132102;27;20054;-65
2022/10/13 00:48:43;;;;;;;31.67;14.27;;;10.00;99.90;;;;;;5130084;27;20046;-65
2022/10/13 00:51:11;;;;;;;22.73;14.95;;;10.00;99.90;;;;;;5133377;27;20129;-65
2022/10/13 00:53:39;;;;;;;23.30;13.38;;;10.00;99.90;;;;;;5132181;27;20125;-65
2022/10/13 00:56:08;;;;;;;22.13;13.30;;;10.00;99.90;;;;;;5115200;27;20046;-65
2022/10/13 00:58:36;;;;;;;27.00;15.15;;;10.00;99.90;;;;;;5133306;27;20567;-65
2022/10/13 01:01:03;;;;;;;24.05;13.20;;;10.00;99.90;;;;;;5132218;27;20371;-65
2022/10/13 01:03:38;;;;;;;28.90;13.45;;;10.00;99.90;;;;;;5133235;27;20045;-65
2022/10/13 01:06:06;;;;;;;22.27;13.98;;;10.00;99.90;;;;;;5132146;27;20167;-65
2022/10/13 01:08:32;;;;;;;24.20;13.90;;;10.00;99.90;;;;;;5114494;27;20043;-65
2022/10/13 01:11:19;;;;;;;25.90;14.68;;;10.00;99.90;;;;;;5114874;27;20146;-65
2022/10/13 01:14:13;;;;;;;22.23;13.82;;;10.00;99.90;;;;;;5133013;27;20039;-65
2022/10/13 01:16:56;;;;;;;20.05;13.68;;;10.00;99.90;;;;;;5133188;27;20501;-65
2022/10/13 01:19:43;;;;;;;23.50;14.25;;;10.00;99.90;;;;;;5130462;27;20046;-65
2022/10/13 01:22:30;;;;;;;25.77;14.15;;;10.00;99.90;;;;;;5131601;27;20035;-65
2022/10/13 01:25:46;;;;;;;22.50;13.43;;;10.00;99.90;;;;;;5131469;27;20075;-65
2022/10/13 01:28:45;;;;;;;22.30;13.13;;;10.00;99.90;;;;;;5088564;27;20043;-65
2022/10/13 01:31:52;;;;;;;21.70;13.45;;;9.90;99.90;;;;;;5112380;28;20048;-65
2022/10/13 01:34:21;;;;;;;28.85;14.32;;;9.90;99.90;;;;;;5109214;28;20086;-65
2022/10/13 01:37:08;;;;;;;24.30;13.25;;;10.00;99.90;;;;;;5094027;28;20079;-65
2022/10/13 01:39:38;;;;;;;27.60;13.63;;;9.90;99.90;;;;;;5076721;28;20035;-65
2022/10/13 01:42:13;;;;;;;20.67;13.43;;;9.90;99.90;;;;;;5093879;28;20050;-64
2022/10/13 01:44:49;;;;;;;22.50;13.05;;;10.00;99.90;;;;;;5093804;28;20054;-64
2022/10/13 01:47:16;;;;;;;25.70;13.07;;;10.00;99.90;;;;;;5091648;28;20082;-65
2022/10/13 01:49:43;;;;;;;20.83;14.00;;;10.00;99.90;;;;;;5093891;28;20050;-65
2022/10/13 01:52:16;;;;;;;21.40;13.35;;;10.00;99.90;;;;;;5111665;28;20540;-65
2022/10/13 01:54:42;;;;;;;25.05;14.05;;;10.00;99.90;;;;;;5111720;28;20040;-64
2022/10/13 01:57:31;;;;;;;19.23;12.43;;;10.00;99.90;;;;;;5093454;28;20051;-65
2022/10/13 02:00:00;;;;;;;20.92;13.35;;;10.00;99.90;;;;;;5111682;28;20380;-65
2022/10/13 02:02:36;;;;;;;24.02;12.48;;;10.10;99.90;;;;;;5093502;28;20504;-65
2022/10/13 02:05:12;;;;;;;24.42;12.98;;;10.00;99.90;;;;;;5111703;28;20122;-65
2022/10/13 02:08:18;;;;;;;24.98;13.93;;;10.00;99.90;;;;;;5093352;28;20052;-64
2022/10/13 02:11:18;;;;;;;22.00;14.15;;;10.10;99.90;;;;;;5093154;28;20055;-65
2022/10/13 02:14:06;;;;;;;25.30;14.02;;;10.10;99.90;;;;;;5090631;28;20062;-65
2022/10/13 02:16:39;;;;;;;24.13;14.52;;;10.10;99.90;;;;;;5111507;28;20105;-66
2022/10/13 02:19:08;;;;;;;29.17;14.98;;;10.10;99.90;;;;;;5074438;28;20125;-66
2022/10/13 02:21:35;;;;;;;24.65;14.30;;;10.10;99.90;;;;;;5097529;28;20040;-66
2022/10/13 02:24:03;;;;;;;25.00;14.07;;;10.10;99.90;;;;;;5115831;28;20107;-66
2022/10/13 02:26:31;;;;;;;24.67;14.60;;;10.00;99.90;;;;;;5097377;28;20129;-67
2022/10/13 02:28:56;;;;;;;26.85;14.23;;;10.10;99.90;;;;;;5088476;27;20046;-67
2022/10/13 02:31:22;;;;;;;26.80;14.50;;;10.00;99.90;;;;;;5157130;27;20057;-68
2022/10/13 02:33:48;;;;;;;26.30;15.55;;;10.00;99.90;;;;;;5138127;27;20034;-68
2022/10/13 02:36:14;;;;;;;26.98;15.13;;;10.00;99.90;;;;;;5138187;27;20074;-69
2022/10/13 02:38:40;;;;;;;27.73;15.23;;;10.00;99.90;;;;;;5138401;27;20052;-68
2022/10/13 02:41:05;;;;;;;28.27;16.60;;;10.00;99.90;;;;;;5156613;27;20037;-69
2022/10/13 02:43:32;;;;;;;30.98;15.95;;;10.00;99.90;;;;;;5138163;27;20039;-68
2022/10/13 02:45:58;;;;;;;28.55;16.30;;;10.00;99.90;;;;;;5156760;27;20435;-69
2022/10/13 02:48:24;;;;;;;29.88;17.38;;;10.00;99.90;;;;;;5118866;27;20133;-69
2022/10/13 02:50:50;;;;;;;29.73;17.13;;;10.00;99.90;;;;;;5137933;27;20595;-69
2022/10/13 02:53:17;;;;;;;31.75;18.05;;;10.00;99.90;;;;;;5137860;27;20039;-69
2022/10/13 02:55:43;;;;;;;26.02;16.10;;;10.00;99.90;;;;;;5137873;27;20035;-69
2022/10/13 02:58:09;;;;;;;33.15;17.27;;;10.00;99.90;;;;;;5137842;27;20107;-68
2022/10/13 03:00:35;;;;;;;27.38;16.92;;;10.00;99.90;;;;;;5156426;27;20039;-68
2022/10/13 03:03:00;;;;;;;34.47;17.88;;;10.00;99.90;;;;;;5158077;27;20039;-69
2022/10/13 03:05:26;;;;;;;28.55;16.85;;;10.00;99.90;;;;;;5158372;27;20037;-69
2022/10/13 03:07:52;;;;;;;29.08;18.08;;;10.00;99.90;;;;;;5139040;27;20474;-68
2022/10/13 03:10:18;;;;;;;29.42;17.33;;;9.90;99.90;;;;;;5139124;27;20076;-71
2022/10/13 03:12:44;;;;;;;35.13;18.73;;;10.00;99.90;;;;;;5140227;27;20173;-69
2022/10/13 03:15:09;;;;;;;34.03;18.45;;;10.00;99.90;;;;;;5140877;27;20066;-71
2022/10/13 03:17:35;;;;;;;35.80;18.60;;;10.00;99.90;;;;;;5155903;27;20061;-68
2022/10/13 03:20:01;;;;;;;32.20;18.85;;;10.00;99.90;;;;;;5157813;27;20389;-67
2022/10/13 03:22:31;;;;;;;38.42;20.83;;;10.00;99.90;;;;;;5156010;27;20421;-68
2022/10/13 03:24:56;;;;;;;29.80;17.20;;;10.00;99.90;;;;;;5138247;27;20084;-68
2022/10/13 03:27:22;;;;;;;28.20;17.48;;;10.00;99.90;;;;;;5138296;27;20367;-69
2022/10/13 03:29:48;;;;;;;31.60;19.27;;;10.00;99.90;;;;;;5137056;27;20063;-70
2022/10/13 03:32:15;;;;;;;29.70;17.25;;;10.00;99.90;;;;;;5155842;27;20046;-70
2022/10/13 03:34:41;;;;;;;33.95;19.35;;;10.00;99.90;;;;;;5155778;27;20043;-70
2022/10/13 03:37:07;;;;;;;29.73;18.50;;;10.10;99.90;;;;;;5137325;27;20038;-70
2022/10/13 03:39:33;;;;;;;32.83;18.27;;;10.10;99.90;;;;;;5120083;27;20034;-69
2022/10/13 03:41:58;;;;;;;37.50;20.15;;;10.10;99.90;;;;;;5155428;27;20387;-70
2022/10/13 03:44:24;;;;;;;34.13;18.95;;;10.10;99.90;;;;;;5120001;27;20042;-70
2022/10/13 03:46:51;;;;;;;37.55;20.63;;;10.10;99.90;;;;;;5136759;27;20505;-69
2022/10/13 03:49:17;;;;;;;35.05;20.70;;;10.10;99.90;;;;;;5153174;27;20130;-68
2022/10/13 03:51:44;;;;;;;41.70;22.85;;;10.10;99.90;;;;;;5136925;27;20113;-69
2022/10/13 03:54:13;;;;;;;36.05;20.40;;;10.10;99.90;;;;;;5119718;27;20046;-69
2022/10/13 03:56:39;;;;;;;33.72;19.80;;;10.20;99.90;;;;;;5136878;27;20077;-69
2022/10/13 03:59:06;;;;;;;38.72;21.52;;;10.20;99.90;;;;;;5136605;27;20477;-70
2022/10/13 04:01:32;;;;;;;40.42;22.63;;;10.20;99.90;;;;;;5155118;27;20042;-69
2022/10/13 04:04:01;;;;;;;38.35;20.95;;;10.20;99.90;;;;;;5136508;27;20039;-70
2022/10/13 04:06:27;;;;;;;39.97;21.27;;;10.20;99.90;;;;;;5136503;27;20047;-70
2022/10/13 04:08:54;;;;;;;34.25;20.58;;;10.30;99.90;;;;;;5154934;27;20043;-69
2022/10/13 04:11:20;;;;;;;38.63;22.88;;;10.20;99.90;;;;;;5136289;27;20102;-69
2022/10/13 04:13:46;;;;;;;37.88;22.15;;;10.20;99.90;;;;;;5136271;27;20043;-69
2022/10/13 04:16:31;;;;;;;42.58;23.13;;;10.20;99.90;;;;;;5136528;27;20038;-68
2022/10/13 04:19:02;;;;;;;41.15;22.33;;;10.30;99.90;;;;;;5152500;27;20031;-69
2022/10/13 04:21:30;;;;;;;42.70;22.63;;;10.30;99.90;;;;;;5136195;27;20034;-69
2022/10/13 04:23:58;;;;;;;42.47;22.80;;;10.30;99.90;;;;;;5154692;27;20125;-69
2022/10/13 04:26:26;;;;;;;41.13;23.38;;;10.30;99.90;;;;;;5136178;27;20045;-70
2022/10/13 04:28:53;;;;;;;40.47;23.48;;;10.30;99.90;;;;;;5154658;27;20561;-70
2022/10/13 04:31:21;;;;;;;51.13;25.75;;;10.30;99.90;;;;;;5154716;27;20074;-69
2022/10/13 04:33:47;;;;;;;44.95;24.65;;;10.30;99.90;;;;;;5135779;27;20122;-68
2022/10/13 04:36:14;;;;;;;47.20;25.65;;;10.30;99.90;;;;;;5136149;27;20379;-68
2022/10/13 04:38:41;;;;;;;50.63;26.27;;;10.40;99.90;;;;;;5136127;27;20039;-69
2022/10/13 04:41:08;;;;;;;50.08;27.38;;;10.40;99.90;;;;;;5136087;27;20142;-70
2022/10/13 04:43:34;;;;;;;55.47;27.25;;;10.40;99.90;;;;;;5135481;27;20363;-70
2022/10/13 04:46:13;;;;;;;54.75;29.55;;;10.40;99.90;;;;;;5135973;27;20394;-69
2022/10/13 04:48:39;;;;;;;48.65;27.80;;;10.50;99.90;;;;;;5133673;27;20141;-70
2022/10/13 04:51:11;;;;;;;51.60;28.52;;;10.50;99.90;;;;;;5135772;27;20102;-69
2022/10/13 04:53:37;;;;;;;53.95;29.00;;;10.50;99.90;;;;;;5135492;27;20074;-70
2022/10/13 04:56:07;;;;;;;49.55;27.27;;;10.50;99.90;;;;;;5154011;27;20037;-70
2022/10/13 04:58:33;;;;;;;59.42;31.17;;;10.50;99.90;;;;;;5154139;27;20030;-69
2022/10/13 05:01:00;;;;;;;54.33;28.40;;;10.60;99.90;;;;;;5135478;27;20037;-69
2022/10/13 05:03:26;;;;;;;59.20;32.53;;;10.60;99.90;;;;;;5135400;27;20034;-69
2022/10/13 05:05:52;;;;;;;57.53;32.30;;;10.60;99.90;;;;;;5154049;27;20511;-69
2022/10/13 05:08:18;;;;;;;66.30;30.45;;;10.60;99.90;;;;;;5135240;27;20177;-69
2022/10/13 05:11:01;;;;;;;54.58;30.13;;;10.60;99.90;;;;;;5135393;27;20043;-69
2022/10/13 05:13:28;;;;;;;65.53;32.30;;;10.70;99.90;;;;;;5153544;27;20631;-69
2022/10/13 05:15:55;;;;;;;55.38;29.08;;;10.70;99.90;;;;;;5135301;27;20053;-69
2022/10/13 05:18:22;;;;;;;53.60;29.20;;;10.70;99.90;;;;;;5132822;27;20117;-69
2022/10/13 05:20:48;;;;;;;63.38;31.23;;;10.80;99.90;;;;;;5153693;27;20123;-69
2022/10/13 05:23:14;;;;;;;55.65;30.20;;;10.80;99.90;;;;;;5134918;27;20144;-69
2022/10/13 05:25:40;;;;;;;52.05;29.55;;;10.80;99.90;;;;;;5153571;27;20561;-69
2022/10/13 05:28:07;;;;;;;51.17;27.50;;;10.80;99.90;;;;;;5135115;27;20113;-70
2022/10/13 05:30:33;;;;;;;58.60;30.42;;;10.80;99.90;;;;;;5131209;27;20047;-69
2022/10/13 05:32:59;;;;;;;60.40;31.65;;;10.80;99.90;;;;;;5132509;27;20054;-69
2022/10/13 05:35:26;;;;;;;56.13;29.95;;;10.90;99.90;;;;;;5131335;27;20743;-69
2022/10/13 05:37:52;;;;;;;50.75;30.25;;;10.90;99.90;;;;;;5134576;27;20582;-70
2022/10/13 05:40:22;;;;;;;61.88;30.38;;;10.90;99.90;;;;;;5134613;27;20053;-70
2022/10/13 05:42:49;;;;;;;51.53;29.00;;;10.90;99.90;;;;;;5153166;27;20549;-69
2022/10/13 05:45:16;;;;;;;52.45;30.67;;;10.90;99.90;;;;;;5153131;27;20052;-69
2022/10/13 05:47:42;;;;;;;51.15;28.95;;;10.90;99.90;;;;;;5150977;27;20640;-69
2022/10/13 05:50:08;;;;;;;52.60;29.00;;;10.90;99.90;;;;;;5153197;27;20049;-69
2022/10/13 05:52:36;;;;;;;46.17;26.40;;;10.90;99.90;;;;;;5134503;27;20046;-69
2022/10/13 05:55:04;;;;;;;56.75;29.65;;;10.90;99.90;;;;;;5152162;27;20070;-69
2022/10/13 05:57:34;;;;;;;50.10;27.65;;;10.90;99.90;;;;;;5134468;27;20047;-69
2022/10/13 06:00:07;;;;;;;56.38;28.38;;;10.90;99.90;;;;;;5117287;27;20119;-69
2022/10/13 06:02:38;;;;;;;51.22;28.52;;;10.90;99.90;;;;;;5134552;27;20087;-68
2022/10/13 06:05:07;;;;;;;47.17;27.33;;;10.90;99.90;;;;;;5117131;27;20053;-69
2022/10/13 06:07:33;;;;;;;50.78;26.85;;;10.90;99.90;;;;;;5134409;27;20043;-68
2022/10/13 06:10:00;;;;;;;53.03;27.50;;;11.00;99.90;;;;;;5134558;27;20039;-69
2022/10/13 06:12:26;;;;;;;51.33;28.27;;;11.00;99.90;;;;;;5152925;27;20034;-68
2022/10/13 06:14:52;;;;;;;47.55;27.00;;;11.00;99.90;;;;;;5153107;27;20046;-69
2022/10/13 06:17:17;;;;;;;46.83;26.17;;;11.00;99.90;;;;;;5132253;27;20043;-68
2022/10/13 06:19:44;;;;;;;47.83;27.15;;;11.00;99.90;;;;;;5152967;27;20035;-70
2022/10/13 06:22:10;;;;;;;54.03;28.90;;;11.00;99.90;;;;;;5117539;27;20057;-69
2022/10/13 06:24:36;;;;;;;51.45;28.65;;;11.00;99.90;;;;;;5134540;27;20490;-69
2022/10/13 06:27:01;;;;;;;51.13;28.02;;;11.00;99.90;;;;;;5134279;27;20038;-69
2022/10/13 06:29:27;;;;;;;51.17;26.25;;;11.00;99.90;;;;;;5134021;27;20050;-69
2022/10/13 06:31:53;;;;;;;53.35;28.00;;;11.00;99.90;;;;;;5117159;27;20051;-69
2022/10/13 06:34:19;;;;;;;49.30;28.00;;;11.00;99.90;;;;;;5152640;27;20039;-69
2022/10/13 06:36:46;;;;;;;44.15;26.33;;;11.00;99.90;;;;;;5152786;27;20027;-69
2022/10/13 06:39:11;;;;;;;44.95;26.45;;;11.10;99.90;;;;;;5134207;27;20039;-68
2022/10/13 06:41:37;;;;;;;47.95;26.80;;;11.10;99.90;;;;;;5133999;27;20096;-69
2022/10/13 06:44:04;;;;;;;48.80;26.30;;;11.10;99.90;;;;;;5134028;27;20042;-69
2022/10/13 06:46:30;;;;;;;47.63;27.00;;;11.10;99.90;;;;;;5134328;27;20110;-68
2022/10/13 06:48:55;;;;;;;50.75;28.70;;;11.10;99.90;;;;;;5131921;27;20443;-68
2022/10/13 06:51:21;;;;;;;48.90;27.63;;;11.20;99.90;;;;;;5133966;27;20046;-69
2022/10/13 06:53:47;;;;;;;47.58;27.48;;;11.20;99.90;;;;;;5134046;27;20035;-69
2022/10/13 06:56:13;;;;;;;51.08;27.70;;;11.20;99.90;;;;;;5152509;27;20039;-69
2022/10/13 06:58:39;;;;;;;48.60;27.95;;;11.30;99.90;;;;;;5129201;27;20443;-68
2022/10/13 07:01:06;;;;;;;53.28;27.15;;;11.30;99.90;;;;;;5135115;27;20050;-69
2022/10/13 07:03:35;;;;;;;55.17;27.50;;;11.30;99.90;;;;;;5152739;27;20118;-69
2022/10/13 07:06:04;;;;;;;50.35;26.75;;;11.30;99.90;;;;;;5136763;27;20429;-68
2022/10/13 07:08:36;;;;;;;53.08;26.80;;;11.40;99.90;;;;;;5139237;27;20172;-68
2022/10/13 07:11:14;;;;;;;43.15;26.52;;;11.40;99.90;;;;;;5157358;27;20034;-67
2022/10/13 07:13:41;;;;;;;50.22;27.88;;;11.40;99.90;;;;;;5099283;27;20035;-69
2022/10/13 07:16:09;;;;;;;46.25;27.05;;;11.50;99.90;;;;;;5136053;27;20035;-69
2022/10/13 07:18:35;;;;;;;51.42;27.63;;;11.50;99.90;;;;;;5115689;27;20054;-69
2022/10/13 07:21:01;;;;;;;48.33;27.55;;;11.50;99.90;;;;;;5117989;27;20047;-69
2022/10/13 07:23:28;;;;;;;45.88;25.90;;;11.60;99.90;;;;;;5136653;27;20050;-69
2022/10/13 07:25:56;;;;;;;49.15;26.58;;;11.60;99.90;;;;;;5136119;27;20046;-69
2022/10/13 07:28:23;;;;;;;55.13;26.90;;;11.60;99.90;;;;;;5135899;27;20046;-67
2022/10/13 07:30:49;;;;;;;47.75;26.50;;;11.70;99.90;;;;;;5117956;27;20398;-68
2022/10/13 07:33:21;;;;;;;47.15;26.20;;;11.70;99.90;;;;;;5136144;27;20050;-69
2022/10/13 07:35:51;;;;;;;45.35;27.58;;;11.80;99.90;;;;;;5130816;27;20035;-68
2022/10/13 07:38:17;;;;;;;45.25;26.52;;;11.80;99.90;;;;;;5099042;27;20039;-69
2022/10/13 07:40:43;;;;;;;39.80;24.15;;;11.80;99.90;;;;;;5118001;27;20043;-69
2022/10/13 07:43:09;;;;;;;44.25;25.58;;;11.90;99.90;;;;;;5135982;27;20533;-68
2022/10/13 07:45:35;;;;;;;45.13;26.55;;;11.90;99.90;;;;;;5113031;27;20050;-68
2022/10/13 07:48:01;;;;;;;51.45;24.90;;;11.90;99.90;;;;;;5098469;27;20039;-68
2022/10/13 07:50:27;;;;;;;50.25;26.98;;;12.00;99.90;;;;;;5117621;27;20364;-69
2022/10/13 07:52:54;;;;;;;49.17;26.08;;;12.00;99.90;;;;;;5117637;27;20409;-69
2022/10/13 07:55:20;;;;;;;42.40;24.60;;;12.00;99.90;;;;;;5116572;27;20516;-67
2022/10/13 07:57:46;;;;;;;43.35;25.08;;;12.00;99.90;;;;;;5134731;27;20112;-67
2022/10/13 08:00:12;;;;;;;51.90;26.77;;;12.10;99.90;;;;;;5134694;27;20479;-67
2022/10/13 08:02:39;;;;;;;43.70;25.92;;;12.10;99.90;;;;;;5116413;27;20035;-68
2022/10/13 08:05:05;;;;;;;47.13;25.80;;;12.10;99.90;;;;;;5116369;27;20122;-67
2022/10/13 08:07:31;;;;;;;46.47;27.40;;;12.20;99.90;;;;;;5134721;27;20200;-67
2022/10/13 08:09:57;;;;;;;43.28;26.08;;;12.20;99.90;;;;;;5115947;27;20035;-68
2022/10/13 08:12:23;;;;;;;49.20;26.08;;;12.20;99.90;;;;;;5116498;27;20042;-68
2022/10/13 08:14:50;;;;;;;45.33;26.33;;;12.30;99.90;;;;;;5115921;27;20165;-69
2022/10/13 08:17:16;;;;;;;45.15;26.08;;;12.30;99.90;;;;;;5112747;27;20046;-67
2022/10/13 08:19:41;;;;;;;45.05;26.00;;;12.30;99.90;;;;;;5116128;27;20039;-67
2022/10/13 08:22:09;;;;;;;52.15;27.95;;;12.30;99.90;;;;;;5098946;27;20391;-67
2022/10/13 08:24:35;;;;;;;45.78;27.73;;;12.40;99.90;;;;;;5134385;27;20049;-67
2022/10/13 08:27:02;;;;;;;58.90;30.20;;;12.40;99.90;;;;;;5134270;27;20035;-68
2022/10/13 08:29:27;;;;;;;55.00;29.85;;;12.50;99.90;;;;;;5124538;27;20051;-68
2022/10/13 08:31:54;;;;;;;49.45;28.73;;;12.50;99.90;;;;;;5095062;28;20057;-69
2022/10/13 08:34:23;;;;;;;50.70;27.08;;;12.50;99.90;;;;;;5113349;28;20066;-68
2022/10/13 08:36:52;;;;;;;51.38;28.70;;;12.60;99.90;;;;;;5113680;28;20023;-68
2022/10/13 08:39:18;;;;;;;51.83;27.27;;;12.60;99.90;;;;;;5095533;28;20044;-68
2022/10/13 08:41:44;;;;;;;52.53;28.85;;;12.60;99.90;;;;;;5095259;28;20078;-69
2022/10/13 08:44:25;;;;;;;55.03;27.58;;;12.60;99.90;;;;;;5094879;28;20452;-68
2022/10/13 08:47:08;;;;;;;43.22;26.58;;;12.60;99.90;;;;;;5094961;28;20035;-69
2022/10/13 08:49:33;;;;;;;48.92;28.88;;;12.60;99.90;;;;;;5113394;28;20052;-68
2022/10/13 08:52:04;;;;;;;44.28;27.70;;;12.60;99.90;;;;;;5094865;28;20109;-68
2022/10/13 08:54:33;;;;;;;44.22;27.08;;;12.60;99.90;;;;;;5094932;28;20075;-68
2022/10/13 08:57:05;;;;;;;54.33;29.98;;;12.70;99.90;;;;;;5094911;28;20050;-68
2022/10/13 08:59:32;;;;;;;51.63;28.35;;;12.70;99.90;;;;;;5112877;28;20105;-68
2022/10/13 09:01:58;;;;;;;49.83;28.52;;;12.80;99.90;;;;;;5094849;28;20031;-68
2022/10/13 09:04:32;;;;;;;43.97;26.10;;;12.80;99.90;;;;;;5092817;28;20039;-68
2022/10/13 09:07:00;;;;;;;49.78;28.58;;;12.90;99.90;;;;;;5092229;28;20043;-68
2022/10/13 09:09:26;;;;;;;56.80;28.67;;;12.90;99.90;;;;;;5094527;28;20077;-68
2022/10/13 09:11:52;;;;;;;46.78;27.02;;;13.00;99.90;;;;;;5094215;28;20039;-68
2022/10/13 09:14:23;;;;;;;51.60;27.33;;;13.00;99.90;;;;;;5077460;28;20134;-68
2022/10/13 09:16:53;;;;;;;58.15;29.92;;;13.10;99.90;;;;;;5115263;27;20433;-67
2022/10/13 09:19:35;;;;;;;41.65;26.08;;;13.10;99.90;;;;;;5131381;27;20042;-68
2022/10/13 09:22:24;;;;;;;42.67;25.02;;;13.20;99.90;;;;;;5115386;27;20078;-69
2022/10/13 09:25:16;;;;;;;44.43;25.93;;;13.20;99.90;;;;;;5133980;27;20039;-69
2022/10/13 09:27:46;;;;;;;40.65;25.33;;;13.20;99.90;;;;;;5133841;27;20051;-68
2022/10/13 09:30:27;;;;;;;44.30;25.73;;;13.20;99.90;;;;;;5149459;27;20051;-69
2022/10/13 09:33:11;;;;;;;41.65;24.63;;;13.20;99.90;;;;;;5136268;27;20402;-69
2022/10/13 09:35:41;;;;;;;44.13;25.33;;;13.20;99.90;;;;;;5135730;27;20050;-68
2022/10/13 09:38:24;;;;;;;40.83;26.27;;;13.10;99.90;;;;;;5135635;27;20038;-68
2022/10/13 09:41:07;;;;;;;35.63;23.73;;;13.20;99.90;;;;;;5135664;27;20070;-68
2022/10/13 09:43:36;;;;;;;36.75;23.63;;;13.10;99.90;;;;;;5135073;27;20043;-68
2022/10/13 09:46:23;;;;;;;39.63;24.33;;;13.10;99.90;;;;;;5134535;27;20058;-68
2022/10/13 09:48:54;;;;;;;44.17;25.98;;;13.10;99.90;;;;;;5091403;28;20036;-68
2022/10/13 09:51:43;;;;;;;45.92;26.13;;;13.10;99.90;;;;;;5111594;28;20039;-68
2022/10/13 09:54:38;;;;;;;43.85;26.80;;;13.20;99.90;;;;;;5121796;27;20051;-68
2022/10/13 09:57:19;;;;;;;45.17;27.85;;;13.20;99.90;;;;;;5093647;28;20118;-67
2022/10/13 09:59:57;;;;;;;46.67;29.10;;;13.20;99.90;;;;;;5093321;28;20036;-68
2022/10/13 10:02:32;;;;;;;47.88;30.33;;;13.30;99.90;;;;;;5111474;28;20032;-68
2022/10/13 10:05:12;;;;;;;43.55;28.40;;;13.40;99.90;;;;;;5093041;28;20040;-68
2022/10/13 10:07:38;;;;;;;45.13;27.80;;;13.50;99.90;;;;;;5107303;28;20035;-66
2022/10/13 10:10:20;;;;;;;63.10;32.63;;;13.50;99.90;;;;;;5123100;28;20825;-66
2022/10/13 10:12:46;;;;;;;59.67;31.88;;;13.60;99.90;;;;;;5082507;28;20047;-66
2022/10/13 10:15:26;;;;;;;59.95;31.40;;;13.60;99.90;;;;;;5097723;28;20055;-66
2022/10/13 10:17:58;;;;;;;;;;;13.60;99.90;;;;;;5110194;28;20035;-66
2022/10/13 10:21:13;;;;;;;55.42;29.48;;;13.60;99.90;;;;;;5098178;28;19930;-66
2022/10/13 10:23:47;;;;;;;42.17;26.25;;;13.70;99.90;;;;;;5047873;28;20143;-67
2022/10/13 10:26:19;;;;;;;43.67;26.98;;;13.70;99.90;;;;;;5077719;28;20043;-67
2022/10/13 10:29:20;;;;;;;47.63;28.27;;;13.70;99.90;;;;;;5112904;28;20055;-67
2022/10/13 10:32:02;;;;;;;42.28;26.20;;;13.80;99.90;;;;;;5129455;28;20387;-66
2022/10/13 10:34:34;;;;;;;55.83;28.75;;;13.80;99.90;;;;;;5116268;27;20487;-67
2022/10/13 10:37:38;;;;;;;54.55;30.30;;;13.90;99.90;;;;;;5152277;27;20047;-67
2022/10/13 10:40:17;;;;;;;47.55;28.00;;;14.00;99.90;;;;;;5137164;27;20095;-67
2022/10/13 10:42:42;;;;;;;54.42;29.15;;;14.10;99.90;;;;;;5156299;27;20034;-67
2022/10/13 10:45:18;;;;;;;47.90;28.02;;;14.10;99.90;;;;;;5120381;27;20041;-67
2022/10/13 10:47:51;;;;;;;39.78;26.48;;;14.10;99.90;;;;;;5127383;27;20096;-67
2022/10/13 10:50:20;;;;;;;48.40;28.15;;;14.20;99.90;;;;;;5117139;27;20039;-67
2022/10/13 10:53:01;;;;;;;36.73;26.27;;;14.20;99.90;;;;;;5118138;27;20061;-67
2022/10/13 10:55:44;;;;;;;47.22;27.33;;;14.20;99.90;;;;;;5135226;27;20303;-67
2022/10/13 10:58:22;;;;;;;48.55;26.88;;;14.20;99.90;;;;;;5119028;27;20065;-66
2022/10/13 11:01:18;;;;;;;42.40;25.73;;;14.20;99.90;;;;;;5121223;27;20114;-66
2022/10/13 11:04:20;;;;;;;35.70;22.65;;;14.30;99.90;;;;;;5121408;27;20494;-66
2022/10/13 11:06:46;;;;;;;37.95;23.90;;;14.30;99.90;;;;;;5121326;27;20035;-67
2022/10/13 11:09:12;;;;;;;40.17;25.92;;;14.40;99.90;;;;;;5135508;27;20391;-67
2022/10/13 11:11:40;;;;;;;40.03;25.85;;;14.50;99.90;;;;;;5116800;27;20108;-67
2022/10/13 11:14:06;;;;;;;46.97;26.38;;;14.50;99.90;;;;;;5142926;27;20122;-67
2022/10/13 11:16:38;;;;;;;45.35;24.67;;;14.60;99.90;;;;;;5119465;27;20114;-66
2022/10/13 11:19:24;;;;;;;38.10;23.75;;;14.70;99.90;;;;;;5131533;27;20485;-66
2022/10/13 11:21:59;;;;;;;31.85;22.35;;;14.80;99.90;;;;;;5120676;27;20034;-66
2022/10/13 11:24:40;;;;;;;32.10;19.67;;;14.80;99.90;;;;;;5141284;27;20074;-67
2022/10/13 11:27:18;;;;;;;32.13;22.13;;;14.80;99.90;;;;;;5120616;27;20035;-67
2022/10/13 11:29:56;;;;;;;36.72;23.45;;;14.80;99.90;;;;;;5124878;27;20047;-66
2022/10/13 11:32:54;;;;;;;33.60;22.48;;;14.70;99.90;;;;;;5118726;27;20083;-67
2022/10/13 11:35:11;;;;;;;40.88;25.08;;;14.70;99.90;;;;;;5115759;27;20104;-66
2022/10/13 11:37:56;;;;;;;37.88;23.25;;;14.70;99.90;;;;;;5124854;27;20474;-68
2022/10/13 11:40:49;;;;;;;38.85;24.52;;;14.80;99.90;;;;;;5105646;27;20054;-67
2022/10/13 11:43:42;;;;;;;40.85;25.08;;;14.70;99.90;;;;;;5143523;27;20034;-67
2022/10/13 11:46:22;;;;;;;39.22;24.13;;;14.80;99.90;;;;;;5135956;27;20117;-66
2022/10/13 11:49:19;;;;;;;40.22;25.17;;;14.70;99.90;;;;;;5133300;27;20048;-68
2022/10/13 11:52:11;;;;;;;33.75;24.15;;;14.70;99.90;;;;;;5135055;27;20039;-67
2022/10/13 11:54:52;;;;;;;43.17;25.88;;;14.70;99.90;;;;;;5154502;27;20482;-67
2022/10/13 11:57:23;;;;;;;33.75;22.20;;;14.70;99.90;;;;;;5154471;27;20091;-68
2022/10/13 11:59:54;;;;;;;33.78;21.55;;;14.70;99.90;;;;;;5154639;27;20574;-67
2022/10/13 12:02:24;;;;;;;33.42;23.05;;;14.60;99.90;;;;;;5118144;27;20494;-67
2022/10/13 12:05:20;;;;;;;60.20;29.10;;;14.60;99.90;;;;;;5118550;27;20133;-66
2022/10/13 12:07:48;;;;;;;38.80;24.15;;;14.60;99.90;;;;;;5135865;27;20038;-66
2022/10/13 12:10:27;;;;;;;36.30;24.88;;;14.60;99.90;;;;;;5135807;27;20045;-66
2022/10/13 12:12:53;;;;;;;34.40;22.63;;;14.60;99.90;;;;;;5153078;27;20381;-67
2022/10/13 12:15:38;;;;;;;42.03;25.02;;;14.50;99.90;;;;;;5131925;27;20042;-66
2022/10/13 12:18:40;;;;;;;54.45;27.52;;;14.50;99.90;;;;;;5131273;27;20422;-67
2022/10/13 12:21:21;;;;;;;37.38;24.45;;;14.50;99.90;;;;;;5109194;27;20039;-67
2022/10/13 12:23:49;;;;;;;36.67;23.77;;;14.50;99.90;;;;;;5134493;27;20402;-66
2022/10/13 12:26:24;;;;;;;45.95;25.55;;;14.50;99.90;;;;;;5134339;27;20091;-66
2022/10/13 12:29:10;;;;;;;36.95;24.38;;;14.50;99.90;;;;;;5130309;27;20475;-67
2022/10/13 12:31:46;;;;;;;32.00;21.73;;;14.60;99.90;;;;;;5130147;27;20143;-66
2022/10/13 12:34:32;;;;;;;38.88;23.13;;;14.60;99.90;;;;;;5093717;27;20522;-66
2022/10/13 12:37:36;;;;;;;37.40;22.17;;;14.60;99.90;;;;;;5131656;27;20046;-66
2022/10/13 12:40:07;;;;;;;34.78;21.88;;;14.60;99.90;;;;;;5089837;27;20066;-66
2022/10/13 12:42:39;;;;;;;37.45;21.70;;;14.60;99.90;;;;;;5129992;27;20634;-67
2022/10/13 12:45:07;;;;;;;29.23;19.63;;;14.60;99.90;;;;;;5115184;27;20463;-66
2022/10/13 12:47:54;;;;;;;26.88;18.95;;;14.60;99.90;;;;;;5111527;28;20868;-65
2022/10/13 12:50:36;;;;;;;36.40;22.50;;;14.60;99.90;;;;;;5095435;28;20042;-66
2022/10/13 12:53:12;;;;;;;30.70;21.25;;;14.60;99.90;;;;;;5112090;27;20070;-66